Time,TemperatureF,DewpointF,PressureIn,WindDirection,WindDirectionDegrees,WindSpeedMPH,WindSpeedGustMPH,Humidity,HourlyPrecipIn,Conditions,Clouds,dailyrainin,SoftwareType,DateUTC
2013-08-26 00:09:00,59.8,59.0,30.29,ENE,63,0.0,0.0,97,0.00,,,0.00,weatherlink.com 1.10,2013-08-26 04:09:00,
2013-08-26 00:26:00,59.5,59.0,30.29,ENE,63,0.0,0.0,97,0.00,,,0.00,weatherlink.com 1.10,2013-08-26 04:26:00,
2013-08-26 00:39:00,59.4,59.0,30.29,ENE,63,0.0,0.0,97,0.00,,,0.00,weatherlink.com 1.10,2013-08-26 04:39:00,
2013-08-26 00:54:00,59.1,58.0,30.29,ENE,63,0.0,0.0,97,0.00,,,0.00,weatherlink.com 1.10,2013-08-26 04:54:00,
2013-08-26 01:09:00,58.9,58.0,30.29,ENE,63,0.0,0.0,97,0.00,,,0.00,weatherlink.com 1.10,2013-08-26 05:09:00,
2013-08-26 01:24:00,58.7,58.0,30.29,ENE,63,0.0,0.0,97,0.00,,,0.00,weatherlink.com 1.10,2013-08-26 05:24:00,
2013-08-26 01:39:00,58.5,58.0,30.29,ENE,63,0.0,0.0,97,0.00,,,0.00,weatherlink.com 1.10,2013-08-26 05:39:00,
2013-08-26 01:54:00,58.3,58.0,30.28,ENE,63,0.0,0.0,97,0.00,,,0.00,weatherlink.com 1.10,2013-08-26 05:54:00,
2013-08-26 02:09:00,58.0,57.0,30.28,ENE,63,0.0,0.0,97,0.00,,,0.00,weatherlink.com 1.10,2013-08-26 06:09:00,
2013-08-26 02:24:00,57.8,57.0,30.28,ENE,63,0.0,0.0,97,0.00,,,0.00,weatherlink.com 1.10,2013-08-26 06:24:00,
2013-08-26 02:39:00,57.6,57.0,30.27,ENE,63,0.0,0.0,97,0.00,,,0.00,weatherlink.com 1.10,2013-08-26 06:39:00,
2013-08-26 02:54:00,57.4,57.0,30.27,ENE,63,0.0,0.0,97,0.00,,,0.00,weatherlink.com 1.10,2013-08-26 06:54:00,
2013-08-26 03:09:00,57.3,57.0,30.27,ENE,63,0.0,0.0,98,0.00,,,0.00,weatherlink.com 1.10,2013-08-26 07:09:00,
2013-08-26 03:24:00,57.2,57.0,30.27,ENE,63,0.0,0.0,98,0.00,,,0.00,weatherlink.com 1.10,2013-08-26 07:24:00,
2013-08-26 03:39:00,56.9,56.0,30.26,ENE,63,0.0,0.0,98,0.00,,,0.00,weatherlink.com 1.10,2013-08-26 07:39:00,
2013-08-26 03:54:00,56.8,56.0,30.26,ENE,63,0.0,0.0,98,0.00,,,0.00,weatherlink.com 1.10,2013-08-26 07:54:00,
2013-08-26 04:09:00,56.6,56.0,30.26,ENE,63,0.0,0.0,98,0.00,,,0.00,weatherlink.com 1.10,2013-08-26 08:09:00,
2013-08-26 04:24:00,56.4,56.0,30.26,ENE,63,0.0,0.0,98,0.00,,,0.00,weatherlink.com 1.10,2013-08-26 08:24:00,
2013-08-26 04:39:00,56.3,56.0,30.25,ENE,63,0.0,0.0,98,0.00,,,0.00,weatherlink.com 1.10,2013-08-26 08:39:00,
2013-08-26 04:54:00,56.3,56.0,30.25,ENE,63,0.0,0.0,98,0.00,,,0.00,weatherlink.com 1.10,2013-08-26 08:54:00,
2013-08-26 05:09:00,56.2,56.0,30.25,ENE,63,0.0,0.0,98,0.00,,,0.00,weatherlink.com 1.10,2013-08-26 09:09:00,
2013-08-26 05:24:00,56.0,56.0,30.25,ENE,63,0.0,0.0,98,0.00,,,0.00,weatherlink.com 1.10,2013-08-26 09:24:00,
2013-08-26 05:39:00,56.1,56.0,30.25,ENE,63,0.0,0.0,98,0.00,,,0.00,weatherlink.com 1.10,2013-08-26 09:39:00,
2013-08-26 05:54:00,55.9,55.0,30.24,ENE,63,0.0,0.0,98,0.00,,,0.00,weatherlink.com 1.10,2013-08-26 09:54:00,
2013-08-26 06:09:00,55.7,55.0,30.24,ENE,63,0.0,0.0,98,0.00,,,0.00,weatherlink.com 1.10,2013-08-26 10:09:00,
2013-08-26 06:24:00,55.4,55.0,30.24,ENE,63,0.0,0.0,98,0.00,,,0.00,weatherlink.com 1.10,2013-08-26 10:24:00,
2013-08-26 06:39:00,55.1,55.0,30.25,ENE,63,0.0,0.0,98,0.00,,,0.00,weatherlink.com 1.10,2013-08-26 10:39:00,
2013-08-26 06:54:00,54.9,54.0,30.25,ENE,63,0.0,0.0,98,0.00,,,0.00,weatherlink.com 1.10,2013-08-26 10:54:00,
2013-08-26 07:09:00,54.7,54.0,30.25,ENE,63,0.0,0.0,98,0.00,,,0.00,weatherlink.com 1.10,2013-08-26 11:09:00,
2013-08-26 07:24:00,54.9,55.0,30.25,ENE,63,0.0,0.0,99,0.00,,,0.00,weatherlink.com 1.10,2013-08-26 11:24:00,
2013-08-26 07:39:00,55.3,55.0,30.26,ENE,63,0.0,0.0,99,0.00,,,0.00,weatherlink.com 1.10,2013-08-26 11:39:00,
2013-08-26 07:54:00,56.0,56.0,30.26,ENE,63,0.0,0.0,99,0.00,,,0.00,weatherlink.com 1.10,2013-08-26 11:54:00,
2013-08-26 08:09:00,56.9,57.0,30.26,ENE,63,0.0,0.0,99,0.00,,,0.00,weatherlink.com 1.10,2013-08-26 12:09:00,
2013-08-26 08:24:00,58.1,58.0,30.26,ENE,63,0.0,0.0,99,0.00,,,0.00,weatherlink.com 1.10,2013-08-26 12:24:00,
2013-08-26 08:39:00,60.1,60.0,30.27,ENE,63,0.0,0.0,100,0.00,,,0.00,weatherlink.com 1.10,2013-08-26 12:39:00,
2013-08-26 08:54:00,61.6,62.0,30.27,ENE,63,0.0,0.0,100,0.00,,,0.00,weatherlink.com 1.10,2013-08-26 12:54:00,
2013-08-26 09:10:00,62.8,63.0,30.27,ENE,63,0.0,0.0,100,0.00,,,0.00,weatherlink.com 1.10,2013-08-26 13:10:00,
2013-08-26 09:25:00,63.1,63.0,30.28,ENE,63,0.0,2.0,100,0.00,,,0.00,weatherlink.com 1.10,2013-08-26 13:25:00,
2013-08-26 09:41:00,63.7,64.0,30.27,ENE,63,0.0,1.0,99,0.00,,,0.00,weatherlink.com 1.10,2013-08-26 13:41:00,
2013-08-26 09:55:00,64.9,64.0,30.28,ENE,63,0.0,1.0,95,0.00,,,0.00,weatherlink.com 1.10,2013-08-26 13:55:00,
2013-08-26 10:10:00,66.3,64.0,30.28,ENE,63,0.0,1.0,91,0.00,,,0.00,weatherlink.com 1.10,2013-08-26 14:10:00,
2013-08-26 10:25:00,67.3,64.0,30.28,ENE,63,0.0,1.0,88,0.00,,,0.00,weatherlink.com 1.10,2013-08-26 14:25:00,
2013-08-26 10:40:00,68.1,63.0,30.28,ENE,63,0.0,1.0,84,0.00,,,0.00,weatherlink.com 1.10,2013-08-26 14:40:00,
2013-08-26 10:55:00,69.0,63.0,30.28,ENE,72,1.0,3.0,82,0.00,,,0.00,weatherlink.com 1.10,2013-08-26 14:55:00,
2013-08-26 11:10:00,70.0,63.0,30.27,ENE,74,1.0,3.0,78,0.00,,,0.00,weatherlink.com 1.10,2013-08-26 15:10:00,
2013-08-26 11:25:00,70.8,63.0,30.27,ESE,113,0.0,3.0,75,0.00,,,0.00,weatherlink.com 1.10,2013-08-26 15:25:00,
2013-08-26 11:40:00,71.5,63.0,30.27,SSW,197,0.0,2.0,75,0.00,,,0.00,weatherlink.com 1.10,2013-08-26 15:40:00,
2013-08-26 11:55:00,72.4,64.0,30.26,ESE,122,1.0,3.0,74,0.00,,,0.00,weatherlink.com 1.10,2013-08-26 15:55:00,
2013-08-26 12:10:00,73.7,63.0,30.26,WSW,238,2.0,3.0,70,0.00,,,0.00,weatherlink.com 1.10,2013-08-26 16:10:00,
2013-08-26 12:25:00,75.3,64.0,30.25,SSW,210,1.0,2.0,68,0.00,,,0.00,weatherlink.com 1.10,2013-08-26 16:25:00,
2013-08-26 12:40:00,77.5,67.0,30.25,SSW,212,0.0,2.0,69,0.00,,,0.00,weatherlink.com 1.10,2013-08-26 16:40:00,
2013-08-26 12:55:00,77.7,64.0,30.24,West,259,0.0,3.0,62,0.00,,,0.00,weatherlink.com 1.10,2013-08-26 16:55:00,
2013-08-26 13:10:00,77.6,63.0,30.23,NW,306,1.0,3.0,62,0.00,,,0.00,weatherlink.com 1.10,2013-08-26 17:10:00,
2013-08-26 13:25:00,78.2,65.0,30.23,SE,137,0.0,3.0,65,0.00,,,0.00,weatherlink.com 1.10,2013-08-26 17:25:00,
2013-08-26 13:40:00,80.0,67.0,30.23,SSE,148,1.0,4.0,64,0.00,,,0.00,weatherlink.com 1.10,2013-08-26 17:40:00,
2013-08-26 13:55:00,81.3,64.0,30.22,ESE,105,1.0,4.0,56,0.00,,,0.00,weatherlink.com 1.10,2013-08-26 17:55:00,
2013-08-26 14:11:00,80.3,64.0,30.21,South,182,0.0,2.0,57,0.00,,,0.00,weatherlink.com 1.10,2013-08-26 18:11:00,
2013-08-26 14:26:00,80.4,65.0,30.20,East,95,1.0,4.0,60,0.00,,,0.00,weatherlink.com 1.10,2013-08-26 18:26:00,
2013-08-26 14:41:00,82.2,66.0,30.20,ESE,110,1.0,3.0,59,0.00,,,0.00,weatherlink.com 1.10,2013-08-26 18:41:00,
2013-08-26 14:56:00,82.4,69.0,30.19,ESE,117,1.0,2.0,63,0.00,,,0.00,weatherlink.com 1.10,2013-08-26 18:56:00,
2013-08-26 15:11:00,82.9,64.0,30.18,ESE,112,2.0,4.0,54,0.00,,,0.00,weatherlink.com 1.10,2013-08-26 19:11:00,
2013-08-26 15:26:00,83.0,66.0,30.17,SE,143,0.0,5.0,56,0.00,,,0.00,weatherlink.com 1.10,2013-08-26 19:26:00,
2013-08-26 15:41:00,84.2,65.0,30.17,ESE,117,2.0,3.0,53,0.00,,,0.00,weatherlink.com 1.10,2013-08-26 19:41:00,
2013-08-26 15:56:00,84.1,65.0,30.16,ESE,114,3.0,3.0,53,0.00,,,0.00,weatherlink.com 1.10,2013-08-26 19:56:00,
2013-08-26 16:11:00,84.1,65.0,30.15,West,275,2.0,3.0,53,0.00,,,0.00,weatherlink.com 1.10,2013-08-26 20:11:00,
2013-08-26 16:26:00,83.9,65.0,30.14,SE,134,2.0,2.0,54,0.00,,,0.00,weatherlink.com 1.10,2013-08-26 20:26:00,
2013-08-26 16:41:00,84.2,66.0,30.14,SE,144,0.0,4.0,54,0.00,,,0.00,weatherlink.com 1.10,2013-08-26 20:41:00,
2013-08-26 16:56:00,83.6,66.0,30.14,SE,136,0.0,3.0,56,0.00,,,0.00,weatherlink.com 1.10,2013-08-26 20:56:00,
2013-08-26 17:11:00,83.0,64.0,30.14,WSW,242,1.0,3.0,53,0.00,,,0.00,weatherlink.com 1.10,2013-08-26 21:11:00,
2013-08-26 17:26:00,83.9,66.0,30.13,ESE,112,0.0,3.0,55,0.00,,,0.00,weatherlink.com 1.10,2013-08-26 21:26:00,
2013-08-26 17:41:00,83.6,66.0,30.12,South,189,0.0,2.0,56,0.00,,,0.00,weatherlink.com 1.10,2013-08-26 21:41:00,
2013-08-26 17:56:00,82.1,65.0,30.12,SE,131,0.0,2.0,57,0.00,,,0.00,weatherlink.com 1.10,2013-08-26 21:56:00,
2013-08-26 18:11:00,81.0,66.0,30.11,SE,125,0.0,2.0,60,0.00,,,0.00,weatherlink.com 1.10,2013-08-26 22:11:00,
2013-08-26 18:26:00,80.1,66.0,30.11,SE,125,0.0,1.0,63,0.00,,,0.00,weatherlink.com 1.10,2013-08-26 22:26:00,
2013-08-26 18:41:00,79.3,67.0,30.11,South,174,0.0,1.0,65,0.00,,,0.00,weatherlink.com 1.10,2013-08-26 22:41:00,
2013-08-26 18:56:00,78.7,68.0,30.11,South,173,1.0,1.0,70,0.00,,,0.00,weatherlink.com 1.10,2013-08-26 22:56:00,
2013-08-26 19:11:00,77.8,67.0,30.11,East,86,0.0,2.0,70,0.00,,,0.00,weatherlink.com 1.10,2013-08-26 23:11:00,
2013-08-26 19:26:00,76.8,68.0,30.11,East,101,0.0,0.0,74,0.00,,,0.00,weatherlink.com 1.10,2013-08-26 23:26:00,
2013-08-26 19:41:00,75.4,67.0,30.11,East,101,0.0,0.0,76,0.00,,,0.00,weatherlink.com 1.10,2013-08-26 23:41:00,
2013-08-26 19:56:00,74.1,67.0,30.10,East,101,0.0,0.0,79,0.00,,,0.00,weatherlink.com 1.10,2013-08-26 23:56:00,
2013-08-26 20:11:00,72.4,67.0,30.11,East,101,0.0,0.0,83,0.00,,,0.00,weatherlink.com 1.10,2013-08-27 00:11:00,
2013-08-26 20:26:00,70.9,66.0,30.10,East,101,0.0,0.0,85,0.00,,,0.00,weatherlink.com 1.10,2013-08-27 00:26:00,
2013-08-26 20:41:00,69.5,66.0,30.10,East,101,0.0,0.0,87,0.00,,,0.00,weatherlink.com 1.10,2013-08-27 00:41:00,
2013-08-26 20:56:00,68.5,66.0,30.10,East,101,0.0,0.0,90,0.00,,,0.00,weatherlink.com 1.10,2013-08-27 00:56:00,
2013-08-26 21:11:00,67.6,65.0,30.11,East,101,0.0,0.0,91,0.00,,,0.00,weatherlink.com 1.10,2013-08-27 01:11:00,
2013-08-26 21:26:00,66.9,65.0,30.11,East,101,0.0,0.0,93,0.00,,,0.00,weatherlink.com 1.10,2013-08-27 01:26:00,
2013-08-26 21:41:00,66.5,65.0,30.12,East,101,0.0,0.0,93,0.00,,,0.00,weatherlink.com 1.10,2013-08-27 01:41:00,
2013-08-26 21:56:00,66.2,65.0,30.12,East,101,0.0,0.0,94,0.00,,,0.00,weatherlink.com 1.10,2013-08-27 01:56:00,
2013-08-26 22:11:00,65.9,64.0,30.12,East,101,0.0,0.0,94,0.00,,,0.00,weatherlink.com 1.10,2013-08-27 02:11:00,
2013-08-26 22:26:00,65.7,64.0,30.12,East,101,0.0,0.0,94,0.00,,,0.00,weatherlink.com 1.10,2013-08-27 02:26:00,
2013-08-26 22:41:00,65.4,64.0,30.12,East,101,0.0,0.0,95,0.00,,,0.00,weatherlink.com 1.10,2013-08-27 02:41:00,
2013-08-26 22:56:00,65.2,64.0,30.12,East,101,0.0,0.0,95,0.00,,,0.00,weatherlink.com 1.10,2013-08-27 02:56:00,
2013-08-26 23:11:00,64.9,64.0,30.12,East,101,0.0,0.0,96,0.00,,,0.00,weatherlink.com 1.10,2013-08-27 03:11:00,
2013-08-26 23:26:00,64.8,64.0,30.12,East,101,0.0,0.0,96,0.00,,,0.00,weatherlink.com 1.10,2013-08-27 03:26:00,
2013-08-26 23:41:00,64.5,63.0,30.12,East,101,0.0,0.0,96,0.00,,,0.00,weatherlink.com 1.10,2013-08-27 03:41:00,
2013-08-26 23:56:00,64.4,63.0,30.12,East,101,0.0,0.0,96,0.00,,,0.00,weatherlink.com 1.10,2013-08-27 03:56:00,